createdAt,value
2024-03-08T00:00:15.023Z,7.65
2024-03-08T00:02:44.331Z,7.65
2024-03-08T00:05:12.529Z,7.65
2024-03-08T00:07:40.479Z,7.65
2024-03-08T00:10:12.716Z,7.62
2024-03-08T00:12:47.848Z,7.60
2024-03-08T00:15:18.272Z,7.56
2024-03-08T00:17:47.287Z,7.53
2024-03-08T00:20:15.609Z,7.50
2024-03-08T00:22:43.615Z,7.49
2024-03-08T00:25:11.624Z,7.50
2024-03-08T00:27:45.118Z,7.48
2024-03-08T00:30:14.636Z,7.45
2024-03-08T00:32:42.646Z,7.46
2024-03-08T00:35:11.421Z,7.48
2024-03-08T00:37:39.032Z,7.52
2024-03-08T00:40:08.415Z,7.52
2024-03-08T00:42:36.180Z,7.53
2024-03-08T00:45:04.214Z,7.54
2024-03-08T00:47:31.901Z,7.54
2024-03-08T00:49:59.550Z,7.55
2024-03-08T00:52:27.277Z,7.61
2024-03-08T00:54:54.821Z,7.62
2024-03-08T00:57:23.225Z,7.61
2024-03-08T00:59:52.251Z,7.60
2024-03-08T01:02:24.295Z,7.59
2024-03-08T01:04:55.420Z,7.58
2024-03-08T01:07:26.452Z,7.56
2024-03-08T01:09:56.808Z,7.54
2024-03-08T01:12:27.474Z,7.52
2024-03-08T01:14:56.418Z,7.51
2024-03-08T01:17:27.579Z,7.49
2024-03-08T01:19:57.817Z,7.48
2024-03-08T01:22:29.665Z,7.47
2024-03-08T01:24:59.017Z,7.45
2024-03-08T01:27:29.493Z,7.44
2024-03-08T01:30:01.552Z,7.42
2024-03-08T01:32:32.040Z,7.41
2024-03-08T01:35:01.515Z,7.39
2024-03-08T01:37:31.337Z,7.37
2024-03-08T01:40:02.540Z,7.35
2024-03-08T01:42:33.085Z,7.33
2024-03-08T01:45:02.544Z,7.32
2024-03-08T01:47:34.647Z,7.30
2024-03-08T01:50:05.010Z,7.28
2024-03-08T01:52:36.556Z,7.27
2024-03-08T01:55:08.846Z,7.27
2024-03-08T01:57:39.620Z,7.25
2024-03-08T02:08:15.057Z,7.27
2024-03-08T02:10:44.678Z,7.32
2024-03-08T02:13:12.247Z,7.31
2024-03-08T02:16:02.228Z,7.28
2024-03-08T02:18:30.242Z,7.23
2024-03-08T02:21:00.726Z,7.18
2024-03-08T02:23:27.826Z,7.13
2024-03-08T02:25:55.724Z,7.09
2024-03-08T02:28:22.684Z,7.04
2024-03-08T02:30:51.164Z,7.01
2024-03-08T02:33:18.788Z,6.97
2024-03-08T02:35:47.716Z,6.94
2024-03-08T02:38:19.117Z,6.90
2024-03-08T02:40:49.900Z,6.86
2024-03-08T02:43:18.201Z,6.84
2024-03-08T02:45:48.214Z,6.80
2024-03-08T02:48:17.037Z,6.77
2024-03-08T02:50:44.998Z,6.74
2024-03-08T02:53:12.420Z,6.69
2024-03-08T02:55:39.881Z,6.64
2024-03-08T02:58:09.487Z,6.59
2024-03-08T03:00:37.115Z,6.56
2024-03-08T03:03:04.397Z,6.51
2024-03-08T03:05:31.509Z,6.48
2024-03-08T03:07:58.909Z,6.45
2024-03-08T03:10:26.469Z,6.42
2024-03-08T03:12:53.623Z,6.41
2024-03-08T03:15:20.178Z,6.44
2024-03-08T03:17:48.551Z,6.48
2024-03-08T03:20:15.702Z,6.52
2024-03-08T03:22:42.527Z,6.54
2024-03-08T03:25:10.416Z,6.53
2024-03-08T03:27:37.486Z,6.50
2024-03-08T03:30:21.463Z,6.48
2024-03-08T03:32:55.315Z,6.46
2024-03-08T03:35:23.180Z,6.41
2024-03-08T03:38:03.081Z,6.37
2024-03-08T03:40:30.313Z,6.32
2024-03-08T03:42:57.041Z,6.28
2024-03-08T03:45:24.635Z,6.24
2024-03-08T03:47:52.516Z,6.20
2024-03-08T03:50:19.786Z,6.18
2024-03-08T03:52:47.480Z,6.18
2024-03-08T03:55:15.236Z,6.17
2024-03-08T03:57:42.181Z,6.18
2024-03-08T04:00:12.662Z,6.18
2024-03-08T04:02:44.701Z,6.17
2024-03-08T04:05:11.620Z,6.16
2024-03-08T04:07:38.777Z,6.15
2024-03-08T04:10:06.966Z,6.17
2024-03-08T04:12:34.868Z,6.23
2024-03-08T04:15:02.136Z,6.28
2024-03-08T04:17:29.249Z,6.29
2024-03-08T04:19:56.372Z,6.28
2024-03-08T04:22:23.251Z,6.28
2024-03-08T04:24:49.925Z,6.28
2024-03-08T04:27:16.741Z,6.27
2024-03-08T04:29:43.598Z,6.27
2024-03-08T04:32:10.627Z,6.26
2024-03-08T04:34:37.439Z,6.26
2024-03-08T04:37:05.300Z,6.30
2024-03-08T04:39:32.665Z,6.41
2024-03-08T04:42:04.124Z,6.57
2024-03-08T04:44:32.624Z,6.77
2024-03-08T04:46:59.660Z,7.01
2024-03-08T04:49:26.397Z,7.23
2024-03-08T04:51:53.136Z,7.47
2024-03-08T04:54:19.973Z,7.74
2024-03-08T04:56:46.778Z,8.05
2024-03-08T04:59:14.161Z,8.39
2024-03-08T05:01:41.058Z,8.71
2024-03-08T05:04:10.162Z,9.05
2024-03-08T05:06:37.721Z,9.41
2024-03-08T05:09:14.223Z,9.75
2024-03-08T05:11:42.546Z,10.12
2024-03-08T05:14:09.249Z,10.49
2024-03-08T05:16:36.529Z,10.87
2024-03-08T05:19:03.780Z,11.38
2024-03-08T05:21:30.832Z,11.92
2024-03-08T05:23:57.699Z,12.27
2024-03-08T05:26:24.608Z,12.65
2024-03-08T05:28:51.395Z,13.03
2024-03-08T05:31:24.072Z,13.18
2024-03-08T05:33:50.990Z,13.50
2024-03-08T05:36:17.801Z,13.88
2024-03-08T05:38:44.478Z,14.28
2024-03-08T05:41:12.651Z,14.67
2024-03-08T05:43:41.235Z,15.07
2024-03-08T05:46:08.105Z,15.45
2024-03-08T05:48:34.896Z,15.81
2024-03-08T05:51:02.617Z,16.16
2024-03-08T05:53:33.019Z,16.50
2024-03-08T05:56:00.049Z,16.83
2024-03-08T05:58:27.360Z,17.19
2024-03-08T06:00:54.425Z,17.51
2024-03-08T06:03:22.064Z,17.80
2024-03-08T06:05:50.010Z,18.07
2024-03-08T06:08:17.250Z,18.36
2024-03-08T06:10:44.201Z,18.67
2024-03-08T06:16:08.918Z,17.93
2024-03-08T06:18:42.706Z,19.28
2024-03-08T06:21:12.914Z,19.61
2024-03-08T06:23:40.053Z,19.83
2024-03-08T06:26:07.559Z,20.02
2024-03-08T06:28:35.524Z,20.14
2024-03-08T06:31:03.039Z,20.24
2024-03-08T06:33:31.600Z,20.34
2024-03-08T06:35:58.582Z,20.43
2024-03-08T06:38:25.811Z,20.50
2024-03-08T06:40:53.635Z,20.55
2024-03-08T06:43:20.555Z,20.58
2024-03-08T06:45:49.066Z,20.64
2024-03-08T06:48:19.209Z,20.69
2024-03-08T06:50:47.456Z,20.70
2024-03-08T06:53:14.417Z,20.61
2024-03-08T06:55:41.362Z,20.49
2024-03-08T06:58:08.073Z,20.40
2024-03-08T07:00:35.186Z,20.37
2024-03-08T07:03:03.105Z,20.30
2024-03-08T07:05:32.124Z,20.05
2024-03-08T07:07:59.161Z,19.87
2024-03-08T07:10:25.924Z,19.84
2024-03-08T07:12:53.799Z,19.85
2024-03-08T07:15:20.905Z,19.79
2024-03-08T07:17:48.020Z,19.99
2024-03-08T07:20:16.435Z,20.01
2024-03-08T07:22:45.092Z,19.98
2024-03-08T07:25:23.428Z,19.89
2024-03-08T07:27:54.634Z,19.53
2024-03-08T07:30:41.294Z,19.39
2024-03-08T07:33:08.917Z,19.34
2024-03-08T07:35:37.596Z,19.29
2024-03-08T07:38:08.590Z,19.23
2024-03-08T07:40:44.695Z,19.18
2024-03-08T07:43:11.738Z,19.09
2024-03-08T07:45:39.288Z,19.01
2024-03-08T07:48:10.237Z,18.90
2024-03-08T07:50:41.213Z,18.76
2024-03-08T07:53:08.154Z,18.62
2024-03-08T07:55:35.881Z,18.52
2024-03-08T07:58:03.734Z,18.42
2024-03-08T08:00:32.242Z,18.33
2024-03-08T08:02:59.239Z,18.29
2024-03-08T08:05:26.932Z,18.29
2024-03-08T08:07:54.158Z,18.39
2024-03-08T08:10:25.563Z,18.37
2024-03-08T08:12:52.304Z,18.30
2024-03-08T08:15:19.239Z,18.25
2024-03-08T08:17:46.224Z,18.09
2024-03-08T08:20:13.440Z,17.84
2024-03-08T08:22:40.941Z,17.75
2024-03-08T08:25:08.238Z,17.75
2024-03-08T08:27:37.114Z,17.80
2024-03-08T08:30:08.716Z,17.72
2024-03-08T08:32:37.739Z,17.66
2024-03-08T08:35:06.289Z,17.63
2024-03-08T08:37:33.130Z,17.65
2024-03-08T08:40:06.095Z,17.65
2024-03-08T08:42:33.061Z,17.68
2024-03-08T08:45:02.929Z,17.90
2024-03-08T08:47:34.151Z,17.96
2024-03-08T08:50:01.587Z,17.94
2024-03-08T08:52:29.877Z,17.68
2024-03-08T08:54:57.182Z,17.53
2024-03-08T08:57:24.775Z,17.42
2024-03-08T08:59:52.034Z,17.35
2024-03-08T09:02:21.614Z,17.35
2024-03-08T09:04:48.939Z,17.36
2024-03-08T09:07:17.008Z,17.27
2024-03-08T09:09:44.314Z,17.16
2024-03-08T09:12:13.993Z,17.15
2024-03-08T09:14:42.019Z,17.10
2024-03-08T09:17:09.224Z,17.11
2024-03-08T09:19:37.270Z,17.14
2024-03-08T09:22:07.369Z,17.22
2024-03-08T09:24:34.201Z,17.16
2024-03-08T09:27:00.825Z,17.06
2024-03-08T09:29:29.440Z,17.07
2024-03-08T09:31:56.493Z,17.14
2024-03-08T09:34:29.137Z,17.20
2024-03-08T09:36:59.797Z,17.29
2024-03-08T09:39:27.704Z,17.36
2024-03-08T09:41:55.975Z,17.48
2024-03-08T09:44:25.226Z,17.77
2024-03-08T09:46:53.994Z,17.84
2024-03-08T09:49:21.396Z,17.75
2024-03-08T09:51:48.662Z,17.69
2024-03-08T09:54:22.857Z,17.66
2024-03-08T09:56:50.623Z,17.67
2024-03-08T09:59:24.044Z,17.66
2024-03-08T10:01:52.676Z,17.61
2024-03-08T10:04:21.608Z,17.58
2024-03-08T10:06:49.346Z,17.53
2024-03-08T10:09:17.315Z,17.47
2024-03-08T10:11:44.298Z,17.37
2024-03-08T10:14:11.430Z,17.33
2024-03-08T10:16:41.354Z,17.29
2024-03-08T10:19:09.024Z,17.29
2024-03-08T10:21:36.089Z,17.33
2024-03-08T10:24:06.162Z,17.35
2024-03-08T10:26:33.038Z,17.42
2024-03-08T10:28:59.966Z,17.50
2024-03-08T10:31:27.152Z,17.59
2024-03-08T10:33:54.989Z,17.64
2024-03-08T10:36:22.032Z,17.64
2024-03-08T10:38:53.537Z,17.66
2024-03-08T10:41:20.322Z,17.73
2024-03-08T10:43:59.376Z,17.83
2024-03-08T10:46:41.644Z,17.82
2024-03-08T10:49:11.819Z,17.81
2024-03-08T10:51:39.551Z,17.86
2024-03-08T10:54:07.833Z,17.89
2024-03-08T10:56:34.613Z,17.90
2024-03-08T10:59:01.748Z,17.96
2024-03-08T11:01:30.596Z,17.99
2024-03-08T11:03:57.703Z,18.01
2024-03-08T11:06:37.001Z,17.98
2024-03-08T11:09:14.151Z,17.97
2024-03-08T11:11:43.319Z,18.02
2024-03-08T11:14:46.886Z,18.03
2024-03-08T11:17:17.384Z,18.05
2024-03-08T11:19:49.577Z,18.08
2024-03-08T11:22:27.606Z,18.11
2024-03-08T11:24:58.329Z,18.15
2024-03-08T11:27:32.061Z,18.19
2024-03-08T11:30:15.239Z,18.28
2024-03-08T11:32:46.877Z,18.34
2024-03-08T11:35:21.028Z,18.34
2024-03-08T11:37:48.727Z,18.33
2024-03-08T11:40:19.990Z,18.35
2024-03-08T11:42:52.128Z,18.41
2024-03-08T11:45:21.937Z,18.47
2024-03-08T11:47:49.970Z,18.52
2024-03-08T11:50:19.186Z,18.57
2024-03-08T11:52:46.584Z,18.57
2024-03-08T11:55:13.453Z,18.55
2024-03-08T11:57:40.550Z,18.54
2024-03-08T12:00:08.758Z,18.53
2024-03-08T12:02:38.382Z,18.49
2024-03-08T12:05:10.878Z,18.46
2024-03-08T12:07:37.924Z,18.46
2024-03-08T12:10:25.551Z,18.46
2024-03-08T12:12:59.825Z,18.47
2024-03-08T12:15:27.995Z,18.47
2024-03-08T12:17:56.173Z,18.40
2024-03-08T12:20:26.588Z,18.29
2024-03-08T12:22:54.756Z,18.24
2024-03-08T12:25:21.967Z,18.25
2024-03-08T12:27:49.076Z,18.29
2024-03-08T12:30:29.473Z,18.29
2024-03-08T12:32:58.054Z,18.29
2024-03-08T12:35:26.912Z,18.26
2024-03-08T12:37:55.333Z,18.20
2024-03-08T12:40:29.365Z,18.16
2024-03-08T12:42:56.770Z,18.10
2024-03-08T12:45:24.758Z,18.07
2024-03-08T12:47:55.389Z,18.05
2024-03-08T12:50:23.072Z,18.01
2024-03-08T12:52:52.373Z,18.02
2024-03-08T12:55:20.900Z,18.04
2024-03-08T12:57:49.244Z,18.05
2024-03-08T13:00:24.234Z,17.99
2024-03-08T13:02:52.155Z,17.99
2024-03-08T13:05:19.109Z,17.97
2024-03-08T13:07:46.852Z,17.94
2024-03-08T13:10:16.984Z,17.91
2024-03-08T13:12:43.998Z,17.88
2024-03-08T13:15:20.762Z,17.82
2024-03-08T13:17:49.022Z,17.79
2024-03-08T13:20:25.277Z,17.78
2024-03-08T13:23:00.864Z,17.76
2024-03-08T13:25:27.904Z,17.75
2024-03-08T13:27:57.231Z,17.70
2024-03-08T13:30:27.354Z,17.62
2024-03-08T13:32:57.367Z,17.57
2024-03-08T13:35:27.917Z,17.56
2024-03-08T13:37:54.835Z,17.57
2024-03-08T13:40:21.956Z,17.56
2024-03-08T13:42:52.033Z,17.53
2024-03-08T13:45:23.139Z,17.49
2024-03-08T13:47:53.714Z,17.47
2024-03-08T13:50:24.136Z,17.43
2024-03-08T13:52:55.506Z,17.34
2024-03-08T13:55:24.146Z,17.29
2024-03-08T13:57:54.167Z,17.29
2024-03-08T14:00:26.351Z,17.28
2024-03-08T14:02:54.555Z,17.27
2024-03-08T14:05:22.026Z,17.25
2024-03-08T14:07:49.829Z,17.20
2024-03-08T14:10:20.550Z,17.15
2024-03-08T14:12:50.378Z,17.16
2024-03-08T14:15:17.503Z,17.15
2024-03-08T14:17:47.279Z,17.11
2024-03-08T14:20:14.049Z,17.06
2024-03-08T14:22:40.896Z,17.04
2024-03-08T14:25:17.517Z,17.00
2024-03-08T14:27:45.704Z,16.95
2024-03-08T14:30:13.716Z,16.90
2024-03-08T14:32:42.284Z,16.84
2024-03-08T14:35:11.843Z,16.77
2024-03-08T14:37:38.632Z,16.76
2024-03-08T14:40:06.488Z,16.75
2024-03-08T14:42:33.838Z,16.73
2024-03-08T14:45:00.789Z,16.76
2024-03-08T14:47:27.708Z,16.75
2024-03-08T14:49:56.327Z,16.70
2024-03-08T14:52:28.968Z,16.63
2024-03-08T14:54:56.613Z,16.62
2024-03-08T14:57:23.403Z,16.59
2024-03-08T14:59:50.861Z,16.56
2024-03-08T15:02:19.756Z,16.54
2024-03-08T15:05:02.027Z,16.55
2024-03-08T15:07:31.557Z,16.56
2024-03-08T15:09:58.378Z,16.57
2024-03-08T15:12:26.701Z,16.56
2024-03-08T15:14:55.671Z,16.55
2024-03-08T15:17:23.550Z,16.52
2024-03-08T15:19:53.141Z,16.44
2024-03-08T15:22:24.522Z,16.39
2024-03-08T15:24:52.472Z,16.35
2024-03-08T15:27:19.528Z,16.33
2024-03-08T15:29:49.728Z,16.27
2024-03-08T15:32:22.992Z,16.20
2024-03-08T15:34:51.092Z,16.18
2024-03-08T15:37:18.160Z,16.18
2024-03-08T15:39:46.346Z,16.15
2024-03-08T15:42:13.159Z,16.13
2024-03-08T15:44:41.963Z,16.06
2024-03-08T15:47:13.334Z,16.03
2024-03-08T15:49:40.188Z,15.97
2024-03-08T15:52:06.992Z,15.92
2024-03-08T15:54:34.066Z,15.87
2024-03-08T15:57:03.438Z,15.84
2024-03-08T15:59:34.381Z,15.77
2024-03-08T16:02:01.860Z,15.70
2024-03-08T16:04:30.507Z,15.66
2024-03-08T16:06:57.450Z,15.58
2024-03-08T16:09:26.062Z,15.53
2024-03-08T16:11:54.298Z,15.47
2024-03-08T16:14:21.388Z,15.41
2024-03-08T16:16:49.170Z,15.36
2024-03-08T16:19:16.211Z,15.31
2024-03-08T16:21:44.410Z,15.23
2024-03-08T16:24:11.353Z,15.18
2024-03-08T16:26:38.275Z,15.11
2024-03-08T16:29:05.619Z,15.06
2024-03-08T16:31:32.797Z,14.98
2024-03-08T16:33:59.866Z,14.91
2024-03-08T16:36:27.906Z,14.84
2024-03-08T16:38:54.749Z,14.76
2024-03-08T16:41:21.946Z,14.69
2024-03-08T16:43:49.954Z,14.63
2024-03-08T16:46:17.211Z,14.56
2024-03-08T16:48:44.380Z,14.53
2024-03-08T16:51:11.772Z,14.51
2024-03-08T16:53:41.387Z,14.50
2024-03-08T16:56:12.050Z,14.46
2024-03-08T16:58:42.445Z,14.42
2024-03-08T17:01:09.585Z,14.37
2024-03-08T17:03:44.912Z,14.35
2024-03-08T17:06:21.456Z,14.28
2024-03-08T17:08:48.319Z,14.24
2024-03-08T17:11:17.621Z,14.17
2024-03-08T17:13:47.994Z,14.12
2024-03-08T17:16:15.930Z,14.06
2024-03-08T17:18:44.705Z,13.99
2024-03-08T17:21:14.163Z,13.91
2024-03-08T17:23:41.154Z,13.86
2024-03-08T17:26:09.164Z,13.81
2024-03-08T17:28:39.039Z,13.81
2024-03-08T17:31:10.296Z,13.79
2024-03-08T17:33:37.956Z,13.78
2024-03-08T17:36:07.871Z,13.79
2024-03-08T17:38:34.825Z,13.76
2024-03-08T17:41:01.826Z,13.75
2024-03-08T17:43:28.788Z,13.70
2024-03-08T17:45:56.176Z,13.69
2024-03-08T17:48:23.165Z,13.67
2024-03-08T17:50:50.606Z,13.65
2024-03-08T17:53:19.166Z,13.59
2024-03-08T17:55:46.581Z,13.56
2024-03-08T17:58:15.665Z,13.54
2024-03-08T18:00:44.028Z,13.52
2024-03-08T18:03:13.216Z,13.50
2024-03-08T18:05:44.111Z,13.45
2024-03-08T18:08:11.737Z,13.40
2024-03-08T18:10:38.803Z,13.38
2024-03-08T18:13:16.671Z,13.34
2024-03-08T18:15:44.213Z,13.32
2024-03-08T18:18:11.740Z,13.27
2024-03-08T18:20:45.615Z,13.25
2024-03-08T18:23:14.097Z,13.22
2024-03-08T18:25:40.854Z,13.20
2024-03-08T18:28:09.032Z,13.16
2024-03-08T18:30:39.511Z,13.12
2024-03-08T18:33:49.502Z,11.77
2024-03-08T18:36:17.164Z,12.86
2024-03-08T18:38:46.531Z,12.97
2024-03-08T18:41:16.254Z,12.94
2024-03-08T18:43:43.946Z,12.92
2024-03-08T18:46:13.572Z,12.89
2024-03-08T18:48:41.185Z,12.86
2024-03-08T18:51:08.856Z,12.84
2024-03-08T18:53:42.106Z,12.82
2024-03-08T18:56:10.337Z,12.79
2024-03-08T18:58:43.145Z,12.81
2024-03-08T19:01:14.462Z,12.79
2024-03-08T19:03:43.352Z,12.77
2024-03-08T19:06:11.716Z,12.76
2024-03-08T19:08:39.332Z,12.73
2024-03-08T19:11:06.969Z,12.71
2024-03-08T19:13:34.682Z,12.67
2024-03-08T19:16:02.413Z,12.64
2024-03-08T19:18:31.252Z,12.59
2024-03-08T19:20:59.962Z,12.59
2024-03-08T19:23:30.798Z,12.56
2024-03-08T19:25:58.803Z,12.54
2024-03-08T19:28:26.747Z,12.52
2024-03-08T19:30:55.937Z,12.49
2024-03-08T19:33:23.577Z,12.49
2024-03-08T19:35:51.170Z,12.47
2024-03-08T19:38:18.825Z,12.43
2024-03-08T19:40:47.303Z,12.43
2024-03-08T19:43:16.805Z,12.42
2024-03-08T19:45:45.959Z,12.40
2024-03-08T19:48:22.193Z,12.37
2024-03-08T19:50:51.154Z,12.34
2024-03-08T19:53:19.491Z,12.30
2024-03-08T19:55:52.005Z,12.31
2024-03-08T19:58:21.993Z,12.28
2024-03-08T20:00:50.709Z,12.26
2024-03-08T20:03:23.684Z,12.27
2024-03-08T20:05:56.558Z,12.28
2024-03-08T20:08:29.444Z,12.28
2024-03-08T20:11:00.344Z,12.27
2024-03-08T20:13:27.882Z,12.28
2024-03-08T20:15:55.838Z,12.27
2024-03-08T20:18:28.040Z,12.26
2024-03-08T20:20:56.993Z,12.28
2024-03-08T20:23:25.565Z,12.26
2024-03-08T20:25:53.531Z,12.27
2024-03-08T20:28:21.706Z,12.26
2024-03-08T20:30:49.533Z,12.24
2024-03-08T20:33:17.584Z,12.21
2024-03-08T20:35:51.557Z,12.19
2024-03-08T20:38:23.576Z,12.15
2024-03-08T20:40:53.619Z,12.11
2024-03-08T20:43:23.385Z,12.07
2024-03-08T20:45:51.639Z,12.02
2024-03-08T20:48:22.321Z,11.97
2024-03-08T20:50:52.167Z,11.94
2024-03-08T20:53:21.189Z,11.88
2024-03-08T20:55:50.676Z,11.84
2024-03-08T20:58:20.269Z,11.82
2024-03-08T21:01:10.347Z,11.81
2024-03-08T21:03:39.354Z,11.78
2024-03-08T21:06:09.044Z,11.76
2024-03-08T21:08:39.817Z,11.73
2024-03-08T21:11:08.155Z,11.72
2024-03-08T21:13:37.462Z,11.69
2024-03-08T21:16:07.048Z,11.65
2024-03-08T21:18:34.806Z,11.64
2024-03-08T21:21:04.803Z,11.61
2024-03-08T21:23:33.556Z,11.53
2024-03-08T21:26:02.932Z,11.49
2024-03-08T21:28:31.309Z,11.46
2024-03-08T21:31:02.287Z,11.43
2024-03-08T21:33:30.477Z,11.40
2024-03-08T21:36:00.698Z,11.39
2024-03-08T21:38:28.544Z,11.37
2024-03-08T21:41:02.745Z,11.37
2024-03-08T21:43:36.285Z,11.37
2024-03-08T21:54:07.546Z,11.43
2024-03-08T21:56:36.167Z,11.42
2024-03-08T21:59:04.933Z,11.40
2024-03-08T22:01:32.960Z,11.38
2024-03-08T22:04:00.796Z,11.36
2024-03-08T22:06:27.952Z,11.35
2024-03-08T22:08:54.669Z,11.32
2024-03-08T22:11:21.596Z,11.31
2024-03-08T22:13:48.958Z,11.29
2024-03-08T22:16:15.817Z,11.28
2024-03-08T22:18:42.758Z,11.28
2024-03-08T22:21:09.458Z,11.24
2024-03-08T22:23:37.175Z,11.22
2024-03-08T22:26:09.602Z,11.18
2024-03-08T22:28:36.322Z,11.14
2024-03-08T22:31:07.127Z,11.12
2024-03-08T22:33:34.490Z,11.11
2024-03-08T22:36:01.357Z,11.11
2024-03-08T22:38:27.961Z,11.11
2024-03-08T22:40:54.935Z,11.10
2024-03-08T22:43:22.691Z,11.07
2024-03-08T22:45:50.383Z,11.06
2024-03-08T22:48:17.209Z,11.04
2024-03-08T22:50:43.844Z,11.03
2024-03-08T22:53:14.082Z,11.00
2024-03-08T22:55:43.766Z,10.97
2024-03-08T22:58:10.717Z,10.96
2024-03-08T23:00:40.172Z,10.94
2024-03-08T23:03:10.620Z,10.93
2024-03-08T23:05:44.496Z,10.91
2024-03-08T23:08:11.647Z,10.90
2024-03-08T23:10:40.800Z,10.91
2024-03-08T23:13:10.090Z,10.92
2024-03-08T23:15:42.168Z,10.92
2024-03-08T23:18:12.304Z,10.92
2024-03-08T23:20:43.059Z,10.92
2024-03-08T23:23:13.285Z,10.91
2024-03-08T23:25:40.999Z,10.91
2024-03-08T23:28:09.032Z,10.88
2024-03-08T23:30:40.241Z,10.87
2024-03-08T23:33:12.870Z,10.85
2024-03-08T23:35:41.508Z,10.84
2024-03-08T23:38:08.278Z,10.82
2024-03-08T23:40:35.136Z,10.80
2024-03-08T23:43:01.812Z,10.79
2024-03-08T23:45:30.748Z,10.75
2024-03-08T23:48:00.108Z,10.72
2024-03-08T23:50:30.557Z,10.68
2024-03-08T23:53:02.023Z,10.63
2024-03-08T23:55:30.808Z,10.57
2024-03-08T23:57:58.626Z,10.48
